This is the latest recevied weather packets stored in our database for station/object R2AKT-13. If no packets are shown the sender has not sent any weather packets the latest 1 day(s).
| Time | Temp. | Humidity | Pressure | Rain* | Wind** | Luminosity | Snow |
|---|---|---|---|---|---|---|---|
| 1778012544 | 17.22° C | 63% | 983.6 hPa | - | 0.45 m/s, 168° | - | - |
| 1778012054 | 17.22° C | 63% | 983.6 hPa | - | 0.45 m/s, 160° | - | - |
| 1778011504 | 17.78° C | 60% | 983.5 hPa | - | 1.79 m/s, 162° | - | - |
| 1778010949 | 18.33° C | 59% | 983.7 hPa | - | 1.79 m/s, 169° | - | - |
| 1778010399 | 17.78° C | 61% | 983.6 hPa | - | 1.34 m/s, 162° | - | - |
| 1778009814 | 17.78° C | 61% | 983.6 hPa | - | 1.79 m/s, 158° | - | - |
| 1778009322 | 18.33° C | 58% | 983.6 hPa | - | 1.34 m/s, 162° | - | - |
| 1778008799 | 18.33° C | 57% | 983.6 hPa | - | 1.79 m/s, 165° | - | - |
| 1778008209 | 18.89° C | 53% | 983.7 hPa | - | 1.34 m/s, 169° | - | - |
| 1778007699 | 18.33° C | 51% | 983.7 hPa | - | 1.34 m/s, 175° | - | - |
| 1778007159 | 18.33° C | 52% | 983.6 hPa | - | 0 m/s | - | - |
| 1778006559 | 18.33° C | 51% | 983.6 hPa | - | 0 m/s | - | - |
| 1778006019 | 18.33° C | 57% | 983.6 hPa | - | 0.45 m/s, 178° | - | - |
| 1778005419 | 18.33° C | 56% | 983.6 hPa | - | 0.89 m/s, 172° | - | - |
| 1778004859 | 18.89° C | 54% | 983.6 hPa | - | 0.45 m/s, 181° | - | - |
| 1778004284 | 18.89° C | 50% | 983.5 hPa | - | 0 m/s | - | - |
| 1778003774 | 18.89° C | 51% | 983.5 hPa | - | 0 m/s | - | - |
| 1778003244 | 18.89° C | 53% | 983.5 hPa | - | 0.45 m/s, 175° | - | - |
| 1778002754 | 19.44° C | 50% | 983.4 hPa | - | 0.89 m/s, 178° | - | - |
| 1778002234 | 20° C | 44% | 983.3 hPa | - | 0.45 m/s, 275° | - | - |
| 1778001634 | 20° C | 46% | 983.3 hPa | - | 0 m/s | - | - |
| 1778001084 | 19.44° C | 46% | 983.4 hPa | - | 0 m/s | - | - |
| 1778000491 | 18.33° C | 53% | 983.4 hPa | - | 0 m/s | - | - |
| 1777999924 | 18.89° C | 53% | 983.4 hPa | - | 1.34 m/s, 291° | - | - |
| 1777999359 | 17.78° C | 58% | 983.7 hPa | - | 0.89 m/s, 257° | - | - |
* Rain since midnight (hover to see other rain measurements)
** Current wind speed in m/s (hover to see current wind gust speed)